sensor_id;sensor_type;location;lat;lon;timestamp;pressure;altitude;pressure_sealevel;temperature;humidity
18813;BME280;9534;51.140;6.296;2023-05-23T00:01:17;100778.66;;;14.82;100.00
18813;BME280;9534;51.140;6.296;2023-05-23T00:05:22;100779.13;;;14.79;100.00
18813;BME280;9534;51.140;6.296;2023-05-23T00:09:30;100783.88;;;14.72;100.00
18813;BME280;9534;51.140;6.296;2023-05-23T00:13:33;100780.91;;;14.74;100.00
18813;BME280;9534;51.140;6.296;2023-05-23T00:17:36;100788.47;;;14.78;100.00
18813;BME280;9534;51.140;6.296;2023-05-23T00:21:40;100782.00;;;14.84;100.00
18813;BME280;9534;51.140;6.296;2023-05-23T00:25:45;100780.63;;;14.93;100.00
18813;BME280;9534;51.140;6.296;2023-05-23T00:29:54;100795.28;;;15.05;100.00
18813;BME280;9534;51.140;6.296;2023-05-23T00:33:59;100788.81;;;15.11;100.00
18813;BME280;9534;51.140;6.296;2023-05-23T00:38:02;100794.00;;;15.19;100.00
18813;BME280;9534;51.140;6.296;2023-05-23T00:42:06;100800.59;;;15.18;100.00
18813;BME280;9534;51.140;6.296;2023-05-23T00:46:10;100803.44;;;15.11;100.00
18813;BME280;9534;51.140;6.296;2023-05-23T00:50:14;100809.41;;;15.08;100.00
18813;BME280;9534;51.140;6.296;2023-05-23T00:54:19;100799.84;;;15.11;100.00
18813;BME280;9534;51.140;6.296;2023-05-23T00:58:27;100804.16;;;15.07;100.00
18813;BME280;9534;51.140;6.296;2023-05-23T01:02:30;100802.47;;;15.06;100.00
18813;BME280;9534;51.140;6.296;2023-05-23T01:06:37;100788.91;;;15.04;100.00
18813;BME280;9534;51.140;6.296;2023-05-23T01:10:40;100780.03;;;15.02;100.00
18813;BME280;9534;51.140;6.296;2023-05-23T01:14:46;100788.06;;;15.04;100.00
18813;BME280;9534;51.140;6.296;2023-05-23T01:18:53;100789.63;;;15.00;100.00
18813;BME280;9534;51.140;6.296;2023-05-23T01:23:04;100787.63;;;15.07;100.00
18813;BME280;9534;51.140;6.296;2023-05-23T01:27:17;100790.38;;;15.07;100.00
18813;BME280;9534;51.140;6.296;2023-05-23T01:31:27;100801.00;;;15.03;100.00
18813;BME280;9534;51.140;6.296;2023-05-23T01:35:32;100796.69;;;14.96;100.00
18813;BME280;9534;51.140;6.296;2023-05-23T01:39:35;100796.69;;;14.96;100.00
18813;BME280;9534;51.140;6.296;2023-05-23T01:43:38;100804.81;;;14.91;100.00
18813;BME280;9534;51.140;6.296;2023-05-23T01:47:43;100793.94;;;14.96;100.00
18813;BME280;9534;51.140;6.296;2023-05-23T01:51:46;100798.00;;;14.93;100.00
18813;BME280;9534;51.140;6.296;2023-05-23T01:55:51;100784.72;;;15.02;100.00
18813;BME280;9534;51.140;6.296;2023-05-23T01:59:55;100797.91;;;15.00;100.00
18813;BME280;9534;51.140;6.296;2023-05-23T02:04:00;100799.47;;;15.07;100.00
18813;BME280;9534;51.140;6.296;2023-05-23T02:08:04;100799.25;;;15.09;100.00
18813;BME280;9534;51.140;6.296;2023-05-23T02:12:07;100801.41;;;15.07;100.00
18813;BME280;9534;51.140;6.296;2023-05-23T02:16:11;100802.34;;;15.01;100.00
18813;BME280;9534;51.140;6.296;2023-05-23T02:20:16;100805.56;;;14.98;100.00
18813;BME280;9534;51.140;6.296;2023-05-23T02:24:21;100809.63;;;14.95;100.00
18813;BME280;9534;51.140;6.296;2023-05-23T02:28:24;100808.91;;;15.00;100.00
18813;BME280;9534;51.140;6.296;2023-05-23T02:32:27;100812.84;;;14.92;100.00
18813;BME280;9534;51.140;6.296;2023-05-23T02:36:32;100824.41;;;14.83;100.00
18813;BME280;9534;51.140;6.296;2023-05-23T02:40:38;100831.00;;;14.82;100.00
18813;BME280;9534;51.140;6.296;2023-05-23T02:44:41;100835.44;;;14.83;100.00
18813;BME280;9534;51.140;6.296;2023-05-23T02:48:44;100839.38;;;14.76;100.00
18813;BME280;9534;51.140;6.296;2023-05-23T02:52:49;100843.72;;;14.83;100.00
18813;BME280;9534;51.140;6.296;2023-05-23T02:56:53;100850.41;;;14.76;100.00
18813;BME280;9534;51.140;6.296;2023-05-23T03:00:56;100848.16;;;14.66;100.00
18813;BME280;9534;51.140;6.296;2023-05-23T03:04:59;100849.63;;;14.69;100.00
18813;BME280;9534;51.140;6.296;2023-05-23T03:09:04;100862.88;;;14.60;100.00
18813;BME280;9534;51.140;6.296;2023-05-23T03:13:08;100855.81;;;14.64;100.00
18813;BME280;9534;51.140;6.296;2023-05-23T03:17:12;100864.56;;;14.61;100.00
18813;BME280;9534;51.140;6.296;2023-05-23T03:21:15;100867.56;;;14.60;100.00
18813;BME280;9534;51.140;6.296;2023-05-23T03:25:19;100874.84;;;14.54;100.00
18813;BME280;9534;51.140;6.296;2023-05-23T03:29:22;100859.91;;;14.44;100.00
18813;BME280;9534;51.140;6.296;2023-05-23T03:33:25;100866.78;;;14.35;100.00
18813;BME280;9534;51.140;6.296;2023-05-23T03:37:29;100859.38;;;14.35;100.00
18813;BME280;9534;51.140;6.296;2023-05-23T03:41:33;100868.63;;;14.41;100.00
18813;BME280;9534;51.140;6.296;2023-05-23T03:45:37;100878.34;;;14.43;100.00
18813;BME280;9534;51.140;6.296;2023-05-23T03:49:46;100859.84;;;14.32;100.00
18813;BME280;9534;51.140;6.296;2023-05-23T03:53:49;100869.31;;;14.36;100.00
18813;BME280;9534;51.140;6.296;2023-05-23T03:57:57;100888.59;;;14.36;100.00
18813;BME280;9534;51.140;6.296;2023-05-23T04:02:01;100866.41;;;14.31;100.00
18813;BME280;9534;51.140;6.296;2023-05-23T04:06:05;100871.47;;;14.34;100.00
18813;BME280;9534;51.140;6.296;2023-05-23T04:10:12;100877.88;;;14.28;100.00
18813;BME280;9534;51.140;6.296;2023-05-23T04:14:18;100885.28;;;14.28;100.00
18813;BME280;9534;51.140;6.296;2023-05-23T04:18:24;100896.09;;;14.29;100.00
18813;BME280;9534;51.140;6.296;2023-05-23T04:22:27;100900.69;;;14.35;100.00
18813;BME280;9534;51.140;6.296;2023-05-23T04:26:30;100888.28;;;14.20;100.00
18813;BME280;9534;51.140;6.296;2023-05-23T04:30:36;100888.09;;;14.21;100.00
18813;BME280;9534;51.140;6.296;2023-05-23T04:34:39;100898.38;;;14.32;100.00
18813;BME280;9534;51.140;6.296;2023-05-23T04:38:45;100898.84;;;14.29;100.00
18813;BME280;9534;51.140;6.296;2023-05-23T04:42:49;100904.34;;;14.29;100.00
18813;BME280;9534;51.140;6.296;2023-05-23T04:47:07;100898.44;;;14.26;100.00
18813;BME280;9534;51.140;6.296;2023-05-23T04:51:27;100915.81;;;14.20;100.00
18813;BME280;9534;51.140;6.296;2023-05-23T04:55:37;100907.09;;;14.29;100.00
18813;BME280;9534;51.140;6.296;2023-05-23T04:59:46;100906.69;;;14.26;100.00
18813;BME280;9534;51.140;6.296;2023-05-23T05:03:51;100914.34;;;14.24;100.00
18813;BME280;9534;51.140;6.296;2023-05-23T05:07:54;100907.91;;;14.30;100.00
18813;BME280;9534;51.140;6.296;2023-05-23T05:11:58;100917.66;;;14.32;100.00
18813;BME280;9534;51.140;6.296;2023-05-23T05:16:02;100918.28;;;14.34;100.00
18813;BME280;9534;51.140;6.296;2023-05-23T05:20:08;100931.88;;;14.29;100.00
18813;BME280;9534;51.140;6.296;2023-05-23T05:24:13;100932.66;;;14.36;100.00
18813;BME280;9534;51.140;6.296;2023-05-23T05:28:16;100938.63;;;14.33;100.00
18813;BME280;9534;51.140;6.296;2023-05-23T05:32:24;100942.44;;;14.32;100.00
18813;BME280;9534;51.140;6.296;2023-05-23T05:36:30;100950.97;;;14.24;100.00
18813;BME280;9534;51.140;6.296;2023-05-23T05:40:34;100955.19;;;14.27;100.00
18813;BME280;9534;51.140;6.296;2023-05-23T05:44:37;100965.44;;;14.13;100.00
18813;BME280;9534;51.140;6.296;2023-05-23T05:48:41;100965.44;;;14.13;100.00
18813;BME280;9534;51.140;6.296;2023-05-23T05:52:48;100972.75;;;14.26;100.00
18813;BME280;9534;51.140;6.296;2023-05-23T05:56:51;100969.19;;;14.25;100.00
18813;BME280;9534;51.140;6.296;2023-05-23T06:00:56;100964.91;;;14.29;100.00
18813;BME280;9534;51.140;6.296;2023-05-23T06:05:02;100960.22;;;14.30;100.00
18813;BME280;9534;51.140;6.296;2023-05-23T06:09:07;100964.47;;;14.32;100.00
18813;BME280;9534;51.140;6.296;2023-05-23T06:13:11;100972.03;;;14.37;100.00
18813;BME280;9534;51.140;6.296;2023-05-23T06:17:18;100960.22;;;14.54;100.00
18813;BME280;9534;51.140;6.296;2023-05-23T06:21:21;100962.66;;;14.44;100.00
18813;BME280;9534;51.140;6.296;2023-05-23T06:25:27;100971.97;;;14.43;100.00
18813;BME280;9534;51.140;6.296;2023-05-23T06:29:30;100977.16;;;14.33;100.00
18813;BME280;9534;51.140;6.296;2023-05-23T06:33:33;100980.97;;;14.32;100.00
18813;BME280;9534;51.140;6.296;2023-05-23T06:37:35;100989.94;;;14.21;100.00
18813;BME280;9534;51.140;6.296;2023-05-23T06:41:42;100988.69;;;14.17;100.00
18813;BME280;9534;51.140;6.296;2023-05-23T06:45:45;100992.91;;;14.26;100.00
18813;BME280;9534;51.140;6.296;2023-05-23T06:49:49;100987.81;;;14.23;100.00
18813;BME280;9534;51.140;6.296;2023-05-23T06:53:52;100993.72;;;14.27;100.00
18813;BME280;9534;51.140;6.296;2023-05-23T06:57:59;100996.72;;;14.19;100.00
18813;BME280;9534;51.140;6.296;2023-05-23T07:02:05;101004.44;;;14.10;100.00
18813;BME280;9534;51.140;6.296;2023-05-23T07:06:09;101009.94;;;14.10;100.00
18813;BME280;9534;51.140;6.296;2023-05-23T07:10:13;101013.81;;;14.03;100.00
18813;BME280;9534;51.140;6.296;2023-05-23T07:14:20;101023.16;;;13.95;100.00
18813;BME280;9534;51.140;6.296;2023-05-23T07:18:24;101026.00;;;14.13;100.00
18813;BME280;9534;51.140;6.296;2023-05-23T07:22:28;101034.75;;;14.04;100.00
18813;BME280;9534;51.140;6.296;2023-05-23T07:26:31;101045.53;;;14.05;100.00
18813;BME280;9534;51.140;6.296;2023-05-23T07:30:35;101039.22;;;13.98;100.00
18813;BME280;9534;51.140;6.296;2023-05-23T07:34:39;101041.00;;;13.86;100.00
18813;BME280;9534;51.140;6.296;2023-05-23T07:38:43;101041.13;;;13.67;100.00
18813;BME280;9534;51.140;6.296;2023-05-23T07:42:46;101041.88;;;13.50;100.00
18813;BME280;9534;51.140;6.296;2023-05-23T07:46:51;101053.50;;;13.45;100.00
18813;BME280;9534;51.140;6.296;2023-05-23T07:50:55;101070.44;;;13.49;100.00
18813;BME280;9534;51.140;6.296;2023-05-23T07:54:58;101067.44;;;13.50;100.00
18813;BME280;9534;51.140;6.296;2023-05-23T07:59:02;101061.81;;;13.39;100.00
18813;BME280;9534;51.140;6.296;2023-05-23T08:03:06;101078.75;;;13.36;100.00
18813;BME280;9534;51.140;6.296;2023-05-23T08:07:19;101081.56;;;13.16;100.00
18813;BME280;9534;51.140;6.296;2023-05-23T08:11:49;101079.44;;;12.99;100.00
18813;BME280;9534;51.140;6.296;2023-05-23T08:15:53;101092.13;;;13.13;100.00
18813;BME280;9534;51.140;6.296;2023-05-23T08:20:01;101090.84;;;13.22;100.00
18813;BME280;9534;51.140;6.296;2023-05-23T08:24:06;101096.75;;;13.25;100.00
18813;BME280;9534;51.140;6.296;2023-05-23T08:28:10;101084.06;;;13.24;100.00
18813;BME280;9534;51.140;6.296;2023-05-23T08:32:21;101090.78;;;13.28;100.00
18813;BME280;9534;51.140;6.296;2023-05-23T08:36:26;101086.59;;;13.26;100.00
18813;BME280;9534;51.140;6.296;2023-05-23T08:40:30;101074.25;;;13.48;100.00
18813;BME280;9534;51.140;6.296;2023-05-23T08:44:41;101078.63;;;13.61;100.00
18813;BME280;9534;51.140;6.296;2023-05-23T08:48:46;101076.16;;;13.84;100.00
18813;BME280;9534;51.140;6.296;2023-05-23T08:52:55;101081.22;;;13.87;100.00
18813;BME280;9534;51.140;6.296;2023-05-23T08:56:59;101088.84;;;13.85;100.00
18813;BME280;9534;51.140;6.296;2023-05-23T09:01:07;101086.84;;;13.68;100.00
18813;BME280;9534;51.140;6.296;2023-05-23T09:05:12;101096.69;;;13.45;100.00
18813;BME280;9534;51.140;6.296;2023-05-23T09:09:17;101098.38;;;13.46;100.00
18813;BME280;9534;51.140;6.296;2023-05-23T09:13:20;101111.09;;;13.34;100.00
18813;BME280;9534;51.140;6.296;2023-05-23T09:17:26;101103.00;;;13.52;100.00
18813;BME280;9534;51.140;6.296;2023-05-23T09:21:29;101104.19;;;13.68;100.00
18813;BME280;9534;51.140;6.296;2023-05-23T09:25:48;101103.66;;;13.84;100.00
18813;BME280;9534;51.140;6.296;2023-05-23T09:29:51;101099.31;;;14.08;100.00
18813;BME280;9534;51.140;6.296;2023-05-23T09:33:54;101100.66;;;13.92;100.00
18813;BME280;9534;51.140;6.296;2023-05-23T09:37:57;101090.09;;;13.89;100.00
18813;BME280;9534;51.140;6.296;2023-05-23T09:42:02;101093.09;;;13.81;100.00
18813;BME280;9534;51.140;6.296;2023-05-23T09:46:07;101092.41;;;13.92;100.00
18813;BME280;9534;51.140;6.296;2023-05-23T09:50:11;101103.38;;;14.36;100.00
18813;BME280;9534;51.140;6.296;2023-05-23T09:54:15;101086.78;;;14.43;100.00
18813;BME280;9534;51.140;6.296;2023-05-23T09:58:19;101092.25;;;15.34;100.00
18813;BME280;9534;51.140;6.296;2023-05-23T10:02:44;101090.75;;;16.26;100.00
18813;BME280;9534;51.140;6.296;2023-05-23T10:06:55;101089.53;;;16.51;100.00
18813;BME280;9534;51.140;6.296;2023-05-23T10:15:29;101086.19;;;16.72;100.00
18813;BME280;9534;51.140;6.296;2023-05-23T10:19:34;101083.66;;;17.17;100.00
18813;BME280;9534;51.140;6.296;2023-05-23T10:23:39;101085.19;;;16.44;100.00
18813;BME280;9534;51.140;6.296;2023-05-23T10:27:42;101091.16;;;15.71;100.00
18813;BME280;9534;51.140;6.296;2023-05-23T10:31:47;101088.78;;;16.04;100.00
18813;BME280;9534;51.140;6.296;2023-05-23T10:35:55;101088.34;;;16.59;100.00
18813;BME280;9534;51.140;6.296;2023-05-23T10:40:00;101095.19;;;17.48;100.00
18813;BME280;9534;51.140;6.296;2023-05-23T10:44:08;101087.38;;;16.53;100.00
18813;BME280;9534;51.140;6.296;2023-05-23T10:48:32;101097.16;;;16.38;100.00
18813;BME280;9534;51.140;6.296;2023-05-23T10:52:38;101104.34;;;16.68;100.00
18813;BME280;9534;51.140;6.296;2023-05-23T10:56:41;101098.94;;;16.62;100.00
18813;BME280;9534;51.140;6.296;2023-05-23T11:00:51;101097.34;;;16.54;100.00
18813;BME280;9534;51.140;6.296;2023-05-23T11:09:18;101097.78;;;16.40;100.00
18813;BME280;9534;51.140;6.296;2023-05-23T11:13:22;101103.03;;;16.41;100.00
18813;BME280;9534;51.140;6.296;2023-05-23T11:17:29;101109.13;;;16.61;100.00
18813;BME280;9534;51.140;6.296;2023-05-23T11:21:33;101109.25;;;16.55;100.00
18813;BME280;9534;51.140;6.296;2023-05-23T11:25:42;101105.78;;;16.82;100.00
18813;BME280;9534;51.140;6.296;2023-05-23T11:29:55;101107.00;;;16.86;100.00
18813;BME280;9534;51.140;6.296;2023-05-23T11:33:59;101110.47;;;17.05;100.00
18813;BME280;9534;51.140;6.296;2023-05-23T11:38:03;101129.34;;;17.19;100.00
18813;BME280;9534;51.140;6.296;2023-05-23T11:42:07;101117.19;;;16.74;100.00
18813;BME280;9534;51.140;6.296;2023-05-23T11:46:10;101125.53;;;16.97;100.00
18813;BME280;9534;51.140;6.296;2023-05-23T11:50:14;101115.63;;;17.24;100.00
18813;BME280;9534;51.140;6.296;2023-05-23T11:54:17;101114.34;;;17.49;100.00
18813;BME280;9534;51.140;6.296;2023-05-23T11:58:27;101113.50;;;16.80;100.00
18813;BME280;9534;51.140;6.296;2023-05-23T12:02:30;101128.53;;;16.43;100.00
18813;BME280;9534;51.140;6.296;2023-05-23T12:06:34;101122.94;;;16.61;100.00
18813;BME280;9534;51.140;6.296;2023-05-23T12:10:37;101118.09;;;17.71;100.00
18813;BME280;9534;51.140;6.296;2023-05-23T12:14:55;101133.91;;;17.71;100.00
18813;BME280;9534;51.140;6.296;2023-05-23T12:18:59;101124.88;;;18.03;100.00
18813;BME280;9534;51.140;6.296;2023-05-23T12:23:02;101129.47;;;18.86;100.00
18813;BME280;9534;51.140;6.296;2023-05-23T12:27:07;101139.56;;;17.30;100.00
18813;BME280;9534;51.140;6.296;2023-05-23T12:31:12;101126.00;;;19.45;100.00
18813;BME280;9534;51.140;6.296;2023-05-23T12:35:15;101131.84;;;18.62;100.00
18813;BME280;9534;51.140;6.296;2023-05-23T12:39:23;101116.91;;;18.07;100.00
18813;BME280;9534;51.140;6.296;2023-05-23T12:43:26;101125.00;;;18.25;100.00
18813;BME280;9534;51.140;6.296;2023-05-23T12:47:31;101122.75;;;17.94;100.00
18813;BME280;9534;51.140;6.296;2023-05-23T12:51:34;101123.75;;;18.44;100.00
18813;BME280;9534;51.140;6.296;2023-05-23T12:55:38;101122.50;;;17.56;100.00
18813;BME280;9534;51.140;6.296;2023-05-23T12:59:41;101125.75;;;17.53;100.00
18813;BME280;9534;51.140;6.296;2023-05-23T13:03:46;101130.66;;;18.90;100.00
18813;BME280;9534;51.140;6.296;2023-05-23T13:07:49;101125.72;;;18.60;100.00
18813;BME280;9534;51.140;6.296;2023-05-23T13:11:52;101125.53;;;18.50;100.00
18813;BME280;9534;51.140;6.296;2023-05-23T13:15:56;101129.84;;;18.90;100.00
18813;BME280;9534;51.140;6.296;2023-05-23T13:20:00;101133.31;;;19.94;100.00
18813;BME280;9534;51.140;6.296;2023-05-23T13:24:06;101126.16;;;19.55;100.00
18813;BME280;9534;51.140;6.296;2023-05-23T13:28:09;101133.41;;;18.02;100.00
18813;BME280;9534;51.140;6.296;2023-05-23T13:32:12;101138.66;;;18.70;100.00
18813;BME280;9534;51.140;6.296;2023-05-23T13:36:16;101124.72;;;19.95;100.00
18813;BME280;9534;51.140;6.296;2023-05-23T13:40:20;101133.59;;;20.40;100.00
18813;BME280;9534;51.140;6.296;2023-05-23T13:44:23;101119.22;;;19.36;100.00
18813;BME280;9534;51.140;6.296;2023-05-23T13:48:26;101126.78;;;18.59;100.00
18813;BME280;9534;51.140;6.296;2023-05-23T13:52:30;101125.03;;;18.85;100.00
18813;BME280;9534;51.140;6.296;2023-05-23T13:56:33;101126.16;;;19.55;100.00
18813;BME280;9534;51.140;6.296;2023-05-23T14:00:37;101123.88;;;19.52;100.00
18813;BME280;9534;51.140;6.296;2023-05-23T14:04:40;101118.56;;;18.96;100.00
18813;BME280;9534;51.140;6.296;2023-05-23T14:08:45;101129.94;;;19.92;100.00
18813;BME280;9534;51.140;6.296;2023-05-23T14:12:48;101127.59;;;20.80;100.00
18813;BME280;9534;51.140;6.296;2023-05-23T14:16:51;101115.72;;;19.67;100.00
18813;BME280;9534;51.140;6.296;2023-05-23T14:20:55;101112.38;;;19.65;100.00
18813;BME280;9534;51.140;6.296;2023-05-23T14:25:00;101118.34;;;19.36;100.00
18813;BME280;9534;51.140;6.296;2023-05-23T14:29:02;101116.88;;;18.63;100.00
18813;BME280;9534;51.140;6.296;2023-05-23T14:33:05;101122.75;;;18.99;100.00
18813;BME280;9534;51.140;6.296;2023-05-23T14:37:11;101111.88;;;20.37;100.00
18813;BME280;9534;51.140;6.296;2023-05-23T14:41:16;101120.78;;;20.13;100.00
18813;BME280;9534;51.140;6.296;2023-05-23T14:45:19;101129.47;;;19.19;100.00
18813;BME280;9534;51.140;6.296;2023-05-23T14:49:22;101127.44;;;18.49;100.00
18813;BME280;9534;51.140;6.296;2023-05-23T14:53:25;101118.84;;;18.78;100.00
18813;BME280;9534;51.140;6.296;2023-05-23T14:57:29;101120.91;;;18.55;100.00
18813;BME280;9534;51.140;6.296;2023-05-23T15:01:32;101120.94;;;18.16;100.00
18813;BME280;9534;51.140;6.296;2023-05-23T15:05:40;101115.97;;;17.62;100.00
18813;BME280;9534;51.140;6.296;2023-05-23T15:09:47;101110.81;;;17.54;100.00
18813;BME280;9534;51.140;6.296;2023-05-23T15:13:51;101114.72;;;18.09;100.00
18813;BME280;9534;51.140;6.296;2023-05-23T15:17:54;101114.50;;;17.71;100.00
18813;BME280;9534;51.140;6.296;2023-05-23T15:21:57;101115.38;;;17.60;100.00
18813;BME280;9534;51.140;6.296;2023-05-23T15:26:00;101119.19;;;18.38;100.00
18813;BME280;9534;51.140;6.296;2023-05-23T15:30:06;101112.19;;;18.79;100.00
18813;BME280;9534;51.140;6.296;2023-05-23T15:34:09;101107.63;;;18.57;100.00
18813;BME280;9534;51.140;6.296;2023-05-23T15:38:12;101114.03;;;18.74;100.00
18813;BME280;9534;51.140;6.296;2023-05-23T15:42:18;101110.59;;;19.54;100.00
18813;BME280;9534;51.140;6.296;2023-05-23T15:46:23;101116.34;;;19.90;100.00
18813;BME280;9534;51.140;6.296;2023-05-23T15:50:26;101117.06;;;20.07;100.00
18813;BME280;9534;51.140;6.296;2023-05-23T15:54:29;101109.66;;;18.62;100.00
18813;BME280;9534;51.140;6.296;2023-05-23T15:58:32;101114.88;;;18.74;100.00
18813;BME280;9534;51.140;6.296;2023-05-23T16:02:37;101114.53;;;18.55;100.00
18813;BME280;9534;51.140;6.296;2023-05-23T16:06:40;101110.25;;;18.63;100.00
18813;BME280;9534;51.140;6.296;2023-05-23T16:10:43;101109.88;;;18.16;100.00
18813;BME280;9534;51.140;6.296;2023-05-23T16:14:46;101110.16;;;18.03;100.00
18813;BME280;9534;51.140;6.296;2023-05-23T16:18:51;101120.16;;;18.32;100.00
18813;BME280;9534;51.140;6.296;2023-05-23T16:22:54;101126.66;;;18.09;100.00
18813;BME280;9534;51.140;6.296;2023-05-23T16:26:57;101117.09;;;18.17;100.00
18813;BME280;9534;51.140;6.296;2023-05-23T16:31:01;101126.63;;;17.93;100.00
18813;BME280;9534;51.140;6.296;2023-05-23T16:35:06;101120.16;;;18.32;100.00
18813;BME280;9534;51.140;6.296;2023-05-23T16:39:09;101122.22;;;17.69;100.00
18813;BME280;9534;51.140;6.296;2023-05-23T16:43:12;101122.41;;;17.05;100.00
18813;BME280;9534;51.140;6.296;2023-05-23T16:47:15;101128.81;;;16.53;100.00
18813;BME280;9534;51.140;6.296;2023-05-23T16:51:19;101129.19;;;16.27;100.00
18813;BME280;9534;51.140;6.296;2023-05-23T16:55:23;101130.88;;;16.28;100.00
18813;BME280;9534;51.140;6.296;2023-05-23T16:59:26;101133.50;;;15.94;100.00
18813;BME280;9534;51.140;6.296;2023-05-23T17:03:29;101132.66;;;15.94;100.00
18813;BME280;9534;51.140;6.296;2023-05-23T17:07:33;101130.63;;;16.18;100.00
18813;BME280;9534;51.140;6.296;2023-05-23T17:11:36;101133.91;;;16.38;100.00
18813;BME280;9534;51.140;6.296;2023-05-23T17:15:39;101127.25;;;16.16;100.00
18813;BME280;9534;51.140;6.296;2023-05-23T17:19:42;101131.84;;;16.22;100.00
18813;BME280;9534;51.140;6.296;2023-05-23T17:23:47;101136.63;;;15.68;100.00
18813;BME280;9534;51.140;6.296;2023-05-23T17:27:50;101131.94;;;15.51;100.00
18813;BME280;9534;51.140;6.296;2023-05-23T17:31:54;101137.28;;;15.28;100.00
18813;BME280;9534;51.140;6.296;2023-05-23T17:35:57;101134.41;;;15.16;100.00
18813;BME280;9534;51.140;6.296;2023-05-23T17:40:02;101142.94;;;15.15;100.00
18813;BME280;9534;51.140;6.296;2023-05-23T17:44:07;101134.34;;;15.23;100.00
18813;BME280;9534;51.140;6.296;2023-05-23T17:48:10;101149.78;;;15.06;100.00
18813;BME280;9534;51.140;6.296;2023-05-23T17:52:14;101151.03;;;15.10;100.00
18813;BME280;9534;51.140;6.296;2023-05-23T17:56:18;101156.19;;;15.24;100.00
18813;BME280;9534;51.140;6.296;2023-05-23T18:00:24;101147.72;;;15.44;100.00
18813;BME280;9534;51.140;6.296;2023-05-23T18:04:27;101156.22;;;15.00;100.00
18813;BME280;9534;51.140;6.296;2023-05-23T18:08:30;101163.97;;;14.85;100.00
18813;BME280;9534;51.140;6.296;2023-05-23T18:12:34;101152.44;;;14.70;100.00
18813;BME280;9534;51.140;6.296;2023-05-23T18:16:38;101161.94;;;14.74;100.00
18813;BME280;9534;51.140;6.296;2023-05-23T18:20:44;101159.06;;;14.38;100.00
18813;BME280;9534;51.140;6.296;2023-05-23T18:24:49;101164.34;;;14.64;100.00
18813;BME280;9534;51.140;6.296;2023-05-23T18:28:55;101156.84;;;14.78;100.00
18813;BME280;9534;51.140;6.296;2023-05-23T18:33:02;101154.53;;;14.75;100.00
18813;BME280;9534;51.140;6.296;2023-05-23T18:37:07;101161.88;;;14.56;100.00
18813;BME280;9534;51.140;6.296;2023-05-23T18:41:11;101161.09;;;14.12;100.00
18813;BME280;9534;51.140;6.296;2023-05-23T18:45:17;101167.13;;;13.89;100.00
18813;BME280;9534;51.140;6.296;2023-05-23T18:49:21;101169.69;;;13.84;100.00
18813;BME280;9534;51.140;6.296;2023-05-23T18:53:24;101177.75;;;13.79;100.00
18813;BME280;9534;51.140;6.296;2023-05-23T18:57:27;101180.75;;;13.71;100.00
18813;BME280;9534;51.140;6.296;2023-05-23T19:01:35;101183.31;;;13.73;100.00
18813;BME280;9534;51.140;6.296;2023-05-23T19:05:38;101189.47;;;13.68;100.00
18813;BME280;9534;51.140;6.296;2023-05-23T19:09:42;101200.53;;;13.43;100.00
18813;BME280;9534;51.140;6.296;2023-05-23T19:13:47;101206.03;;;13.36;100.00
18813;BME280;9534;51.140;6.296;2023-05-23T19:17:51;101208.84;;;13.10;100.00
18813;BME280;9534;51.140;6.296;2023-05-23T19:21:54;101220.69;;;13.04;100.00
18813;BME280;9534;51.140;6.296;2023-05-23T19:25:58;101218.75;;;12.79;100.00
18813;BME280;9534;51.140;6.296;2023-05-23T19:30:01;101210.03;;;12.62;100.00
18813;BME280;9534;51.140;6.296;2023-05-23T19:34:05;101210.25;;;12.48;100.00
18813;BME280;9534;51.140;6.296;2023-05-23T19:38:09;101214.22;;;12.33;100.00
18813;BME280;9534;51.140;6.296;2023-05-23T19:42:12;101219.28;;;12.23;100.00
18813;BME280;9534;51.140;6.296;2023-05-23T19:46:15;101223.84;;;12.09;100.00
18813;BME280;9534;51.140;6.296;2023-05-23T19:50:20;101229.72;;;11.93;100.00
18813;BME280;9534;51.140;6.296;2023-05-23T19:54:23;101235.16;;;11.80;100.00
18813;BME280;9534;51.140;6.296;2023-05-23T19:58:27;101239.75;;;11.80;100.00
18813;BME280;9534;51.140;6.296;2023-05-23T20:02:30;101241.63;;;11.73;100.00
18813;BME280;9534;51.140;6.296;2023-05-23T20:06:35;101258.31;;;11.71;100.00
18813;BME280;9534;51.140;6.296;2023-05-23T20:10:39;101261.13;;;11.57;100.00
18813;BME280;9534;51.140;6.296;2023-05-23T20:14:43;101258.09;;;11.45;100.00
18813;BME280;9534;51.140;6.296;2023-05-23T20:18:47;101265.03;;;11.41;100.00
18813;BME280;9534;51.140;6.296;2023-05-23T20:22:52;101275.72;;;11.36;100.00
18813;BME280;9534;51.140;6.296;2023-05-23T20:26:55;101284.59;;;11.38;100.00
18813;BME280;9534;51.140;6.296;2023-05-23T20:30:58;101283.78;;;11.38;100.00
18813;BME280;9534;51.140;6.296;2023-05-23T20:35:01;101293.63;;;11.32;100.00
18813;BME280;9534;51.140;6.296;2023-05-23T20:39:06;101287.50;;;11.30;100.00
18813;BME280;9534;51.140;6.296;2023-05-23T20:43:08;101291.69;;;11.26;100.00
18813;BME280;9534;51.140;6.296;2023-05-23T20:47:12;101295.94;;;11.29;100.00
18813;BME280;9534;51.140;6.296;2023-05-23T20:51:16;101302.13;;;11.16;100.00
18813;BME280;9534;51.140;6.296;2023-05-23T20:55:20;101304.00;;;11.09;100.00
18813;BME280;9534;51.140;6.296;2023-05-23T20:59:23;101302.94;;;11.10;100.00
18813;BME280;9534;51.140;6.296;2023-05-23T21:03:27;101311.81;;;10.92;100.00
18813;BME280;9534;51.140;6.296;2023-05-23T21:07:30;101310.66;;;10.80;100.00
18813;BME280;9534;51.140;6.296;2023-05-23T21:11:34;101317.69;;;10.68;100.00
18813;BME280;9534;51.140;6.296;2023-05-23T21:15:37;101327.97;;;10.66;100.00
18813;BME280;9534;51.140;6.296;2023-05-23T21:19:41;101328.84;;;10.52;100.00
18813;BME280;9534;51.140;6.296;2023-05-23T21:23:44;101318.03;;;10.44;100.00
18813;BME280;9534;51.140;6.296;2023-05-23T21:27:48;101321.91;;;10.35;100.00